Time;durP1;ratioP1;P1;durP2;ratioP2;P2;SDS_P1;SDS_P2;PMS_P1;PMS_P2;Temp;Humidity;BMP_temperature;BMP_pressure;BME280_temperature;BME280_humidity;BME280_pressure;Samples;Min_cycle;Max_cycle;Signal;HPM_P1;HPM_P2
2022/05/04 00:00:54;;;;;;;8.52;3.88;;;;;;;;;;4977994;28;20200;-76
2022/05/04 00:03:21;;;;;;;6.78;3.00;;;;;;;;;;4979666;28;20552;-76
2022/05/04 00:05:49;;;;;;;3.45;3.13;;;;;;;;;;4975964;28;20205;-76
2022/05/04 00:08:16;;;;;;;9.93;4.60;;;;;;;;;;4986293;28;20194;-75
2022/05/04 00:10:43;;;;;;;8.77;3.53;;;;;;;;;;4954165;28;20194;-75
2022/05/04 00:13:10;;;;;;;5.18;3.55;;;;;;;;;;4964898;28;20192;-75
2022/05/04 00:15:39;;;;;;;4.00;3.35;;;;;;;;;;4973645;28;20219;-75
2022/05/04 00:18:06;;;;;;;4.53;3.45;;;;;;;;;;4983223;28;20672;-75
2022/05/04 00:20:33;;;;;;;7.03;2.95;;;;;;;;;;4982652;28;20201;-76
2022/05/04 00:23:00;;;;;;;3.88;2.95;;;;;;;;;;4990813;28;20200;-76
2022/05/04 00:25:27;;;;;;;4.18;3.00;;;;;;;;;;4976128;28;20651;-76
2022/05/04 00:27:54;;;;;;;6.43;2.72;;;;;;;;;;4978118;28;20205;-75
2022/05/04 00:30:21;;;;;;;5.90;3.22;;;;;;;;;;4978942;28;20674;-76
2022/05/04 00:32:50;;;;;;;7.10;4.38;;;;;;;;;;4987900;28;20203;-75
2022/05/04 00:35:17;;;;;;;4.55;2.88;;;;;;;;;;4986974;28;20212;-75
2022/05/04 00:37:44;;;;;;;5.45;3.35;;;;;;;;;;4968626;28;20210;-75
2022/05/04 00:40:11;;;;;;;3.58;2.83;;;;;;;;;;4979062;28;20208;-75
2022/05/04 00:42:38;;;;;;;4.28;2.55;;;;;;;;;;4980787;28;20232;-76
2022/05/04 00:45:06;;;;;;;5.80;3.10;;;;;;;;;;4972012;28;20221;-76
2022/05/04 00:47:33;;;;;;;4.78;4.35;;;;;;;;;;4990412;28;20199;-75
2022/05/04 00:50:04;;;;;;;3.45;2.75;;;;;;;;;;4980108;28;20201;-75
2022/05/04 00:52:32;;;;;;;5.80;2.65;;;;;;;;;;4985260;28;20225;-74
2022/05/04 00:55:00;;;;;;;3.50;2.30;;;;;;;;;;4983485;28;20197;-74
2022/05/04 01:00:09;;;;;;;6.32;3.30;;;;;;;;;;4967073;28;20286;-74
2022/05/04 01:02:38;;;;;;;6.50;3.10;;;;;;;;;;4982205;28;20209;-76
2022/05/04 01:05:09;;;;;;;7.20;2.90;;;;;;;;;;4961685;28;20240;-76
2022/05/04 01:07:36;;;;;;;3.67;2.88;;;;;;;;;;4978727;28;20252;-76
2022/05/04 01:10:04;;;;;;;3.83;2.60;;;;;;;;;;4974527;28;20204;-74
2022/05/04 01:12:31;;;;;;;3.45;2.40;;;;;;;;;;4981760;28;20204;-76
2022/05/04 01:14:58;;;;;;;5.05;3.17;;;;;;;;;;4970034;28;20189;-75
2022/05/04 01:17:26;;;;;;;4.18;2.92;;;;;;;;;;4980154;28;20193;-76
2022/05/04 01:19:54;;;;;;;3.05;2.75;;;;;;;;;;4976754;28;20201;-75
2022/05/04 01:22:22;;;;;;;4.07;2.65;;;;;;;;;;4984981;28;20220;-75
2022/05/04 01:24:49;;;;;;;3.70;2.78;;;;;;;;;;4977332;28;20605;-75
2022/05/04 01:27:16;;;;;;;2.72;2.20;;;;;;;;;;4984002;28;20193;-75
2022/05/04 01:29:43;;;;;;;2.80;2.50;;;;;;;;;;4977565;28;20204;-75
2022/05/04 01:32:11;;;;;;;3.97;2.70;;;;;;;;;;4985443;28;20197;-75
2022/05/04 01:34:38;;;;;;;2.83;2.63;;;;;;;;;;4977392;28;20197;-73
2022/05/04 01:37:05;;;;;;;4.60;2.50;;;;;;;;;;4972351;28;20208;-74
2022/05/04 01:39:34;;;;;;;3.78;2.70;;;;;;;;;;4971135;28;20206;-75
2022/05/04 01:42:03;;;;;;;2.25;2.08;;;;;;;;;;4976133;28;20235;-76
2022/05/04 01:44:31;;;;;;;3.70;2.30;;;;;;;;;;4976222;28;20226;-76
2022/05/04 01:46:58;;;;;;;3.80;2.63;;;;;;;;;;4981921;28;20232;-76
2022/05/04 01:49:25;;;;;;;5.82;3.15;;;;;;;;;;4983575;28;20225;-75
2022/05/04 01:51:52;;;;;;;3.45;2.80;;;;;;;;;;4985201;28;20197;-75
2022/05/04 01:54:19;;;;;;;3.67;2.42;;;;;;;;;;4980386;28;20533;-76
2022/05/04 01:56:47;;;;;;;2.92;2.60;;;;;;;;;;4988740;28;20204;-75
2022/05/04 01:59:14;;;;;;;6.45;2.75;;;;;;;;;;4985435;28;20644;-76
2022/05/04 02:01:43;;;;;;;3.30;2.25;;;;;;;;;;4981473;28;20211;-76
2022/05/04 02:04:10;;;;;;;3.20;2.30;;;;;;;;;;4975052;28;20254;-75
2022/05/04 02:06:37;;;;;;;3.88;2.00;;;;;;;;;;4974835;28;20197;-77
2022/05/04 02:09:04;;;;;;;5.40;2.42;;;;;;;;;;4975555;28;20200;-74
2022/05/04 02:11:32;;;;;;;3.90;2.25;;;;;;;;;;4989940;28;20560;-76
2022/05/04 02:14:01;;;;;;;3.72;2.75;;;;;;;;;;4976774;28;20263;-74
2022/05/04 02:16:28;;;;;;;3.38;2.50;;;;;;;;;;4974596;28;20659;-75
2022/05/04 02:18:55;;;;;;;4.07;2.97;;;;;;;;;;4987773;28;20204;-74
2022/05/04 02:21:23;;;;;;;4.28;2.47;;;;;;;;;;4983943;28;20201;-75
2022/05/04 02:23:50;;;;;;;4.85;2.65;;;;;;;;;;4979425;28;20553;-75
2022/05/04 02:26:17;;;;;;;4.78;2.90;;;;;;;;;;4979761;28;20599;-75
2022/05/04 02:28:44;;;;;;;4.55;2.40;;;;;;;;;;4979838;28;20217;-76
2022/05/04 02:31:13;;;;;;;4.40;2.72;;;;;;;;;;4978618;28;20248;-76
2022/05/04 02:33:42;;;;;;;5.07;2.50;;;;;;;;;;4985039;28;20216;-76
2022/05/04 02:38:54;;;;;;;4.90;2.13;;;;;;;;;;4983308;28;20681;-75
2022/05/04 02:41:21;;;;;;;3.28;2.47;;;;;;;;;;4990859;28;20239;-76
2022/05/04 02:43:48;;;;;;;5.28;2.20;;;;;;;;;;4991233;28;20246;-76
2022/05/04 02:46:17;;;;;;;3.50;2.95;;;;;;;;;;4976958;28;20676;-77
2022/05/04 02:48:45;;;;;;;2.67;2.47;;;;;;;;;;4981084;28;20528;-75
2022/05/04 02:51:12;;;;;;;2.38;2.05;;;;;;;;;;4985288;28;20203;-76
2022/05/04 02:53:40;;;;;;;2.50;2.30;;;;;;;;;;4980758;28;20193;-76
2022/05/04 02:56:08;;;;;;;2.33;1.85;;;;;;;;;;4991064;28;20676;-76
2022/05/04 02:58:35;;;;;;;3.08;2.65;;;;;;;;;;4992292;28;20219;-76
2022/05/04 03:03:54;;;;;;;4.88;3.05;;;;;;;;;;4972929;28;20190;-76
2022/05/04 03:06:22;;;;;;;2.33;2.10;;;;;;;;;;4985090;28;20204;-75
2022/05/04 03:08:49;;;;;;;5.13;2.50;;;;;;;;;;4985581;28;20699;-76
2022/05/04 03:14:01;;;;;;;3.25;2.50;;;;;;;;;;4986345;28;20203;-76
2022/05/04 03:16:28;;;;;;;2.55;2.35;;;;;;;;;;4967916;28;20198;-76
2022/05/04 03:18:56;;;;;;;3.38;2.35;;;;;;;;;;4976176;28;20204;-75
2022/05/04 03:21:23;;;;;;;3.63;2.05;;;;;;;;;;4986698;28;20198;-75
2022/05/04 03:23:50;;;;;;;2.90;2.60;;;;;;;;;;4971621;28;20205;-76
2022/05/04 03:26:18;;;;;;;3.85;2.80;;;;;;;;;;4988852;28;20228;-75
2022/05/04 03:28:45;;;;;;;3.08;2.05;;;;;;;;;;4988043;28;20194;-77
2022/05/04 03:31:12;;;;;;;4.30;2.63;;;;;;;;;;4966174;28;20207;-76
2022/05/04 03:33:39;;;;;;;2.38;2.00;;;;;;;;;;4989078;28;20277;-77
2022/05/04 03:36:08;;;;;;;3.83;2.55;;;;;;;;;;4976041;28;20637;-76
2022/05/04 03:38:35;;;;;;;3.53;2.15;;;;;;;;;;4972205;28;20197;-76
2022/05/04 03:41:02;;;;;;;5.63;2.35;;;;;;;;;;4972836;28;20228;-77
2022/05/04 03:43:29;;;;;;;5.40;2.55;;;;;;;;;;4986425;28;20285;-77
2022/05/04 03:45:56;;;;;;;3.13;2.47;;;;;;;;;;4964997;28;20221;-77
2022/05/04 03:48:23;;;;;;;6.82;3.28;;;;;;;;;;4980216;28;20201;-76
2022/05/04 03:50:50;;;;;;;3.80;2.50;;;;;;;;;;4981118;28;20197;-77
2022/05/04 03:53:19;;;;;;;4.97;3.15;;;;;;;;;;4983421;28;20205;-76
2022/05/04 03:55:46;;;;;;;5.03;3.00;;;;;;;;;;4978729;28;20194;-77
2022/05/04 03:58:13;;;;;;;2.63;2.42;;;;;;;;;;4986675;28;20205;-77
2022/05/04 04:00:40;;;;;;;3.58;2.05;;;;;;;;;;4967953;28;20215;-77
2022/05/04 04:03:07;;;;;;;3.72;2.50;;;;;;;;;;4992215;28;20193;-77
2022/05/04 04:05:34;;;;;;;4.57;2.33;;;;;;;;;;4976228;28;20224;-77
2022/05/04 04:08:01;;;;;;;3.33;2.72;;;;;;;;;;4984104;28;20221;-77
2022/05/04 04:10:30;;;;;;;5.93;2.30;;;;;;;;;;4976591;28;20278;-77
2022/05/04 04:12:57;;;;;;;5.13;3.13;;;;;;;;;;4975073;28;20297;-76
2022/05/04 04:15:24;;;;;;;6.20;3.70;;;;;;;;;;4972772;28;20625;-76
2022/05/04 04:17:51;;;;;;;2.80;2.60;;;;;;;;;;4972769;28;20204;-77
2022/05/04 04:23:03;;;;;;;6.40;3.42;;;;;;;;;;4966085;28;20668;-77
2022/05/04 04:25:31;;;;;;;6.88;2.60;;;;;;;;;;4970062;28;20221;-76
2022/05/04 04:27:59;;;;;;;3.38;2.55;;;;;;;;;;4988375;28;20225;-76
2022/05/04 04:30:27;;;;;;;3.42;2.60;;;;;;;;;;4977906;28;20205;-78
2022/05/04 04:32:54;;;;;;;5.07;3.42;;;;;;;;;;4982494;28;20194;-77
2022/05/04 04:35:21;;;;;;;10.30;4.82;;;;;;;;;;4980959;28;20206;-76
2022/05/04 04:37:48;;;;;;;3.08;2.78;;;;;;;;;;4970274;28;20216;-77
2022/05/04 04:40:15;;;;;;;5.50;3.08;;;;;;;;;;4972518;28;20208;-77
2022/05/04 04:42:43;;;;;;;7.50;2.80;;;;;;;;;;4976064;28;20295;-77
2022/05/04 04:45:11;;;;;;;4.00;2.80;;;;;;;;;;4963507;28;20226;-78
2022/05/04 04:47:38;;;;;;;4.38;2.55;;;;;;;;;;4984968;28;20311;-77
2022/05/04 04:50:06;;;;;;;6.40;3.70;;;;;;;;;;4970957;28;20204;-77
2022/05/04 04:52:33;;;;;;;4.28;2.75;;;;;;;;;;4979519;28;20205;-77
2022/05/04 04:55:00;;;;;;;7.43;3.15;;;;;;;;;;4982647;28;20190;-78
2022/05/04 04:57:27;;;;;;;3.13;2.42;;;;;;;;;;4985406;28;20201;-77
2022/05/04 04:59:55;;;;;;;5.18;2.90;;;;;;;;;;4985541;28;20201;-78
2022/05/04 05:02:22;;;;;;;6.55;3.50;;;;;;;;;;4986693;28;20201;-77
2022/05/04 05:04:49;;;;;;;5.53;3.08;;;;;;;;;;4983164;28;20214;-77
2022/05/04 05:07:16;;;;;;;4.38;3.05;;;;;;;;;;4978982;28;20197;-77
2022/05/04 05:09:44;;;;;;;3.63;2.45;;;;;;;;;;4971234;28;20224;-76
2022/05/04 05:12:11;;;;;;;3.88;3.38;;;;;;;;;;4983811;28;20210;-77
2022/05/04 05:17:39;;;;;;;5.93;2.60;;;;;;;;;;4905381;29;20203;-77
2022/05/04 05:20:06;;;;;;;4.00;2.03;;;;;;;;;;4905698;29;20200;-78
2022/05/04 05:22:33;;;;;;;3.53;3.05;;;;;;;;;;4936941;28;20688;-77
2022/05/04 05:25:00;;;;;;;3.85;2.63;;;;;;;;;;4975761;28;20220;-78
2022/05/04 05:27:30;;;;;;;5.53;2.80;;;;;;;;;;4977296;28;20560;-77
2022/05/04 05:29:57;;;;;;;3.88;2.50;;;;;;;;;;4976930;28;20220;-77
2022/05/04 05:32:24;;;;;;;3.30;2.53;;;;;;;;;;4975225;28;20208;-77
2022/05/04 05:34:54;;;;;;;4.47;3.05;;;;;;;;;;4981150;28;20533;-78
2022/05/04 05:37:21;;;;;;;3.30;2.92;;;;;;;;;;4969673;28;20541;-77
2022/05/04 05:39:48;;;;;;;3.38;3.08;;;;;;;;;;4974470;28;20245;-75
2022/05/04 05:42:15;;;;;;;4.70;2.88;;;;;;;;;;4980055;28;20603;-76
2022/05/04 05:44:42;;;;;;;3.63;2.90;;;;;;;;;;4971795;28;20205;-77
2022/05/04 05:47:10;;;;;;;7.20;3.60;;;;;;;;;;4982353;28;20564;-76
2022/05/04 05:49:37;;;;;;;5.63;2.95;;;;;;;;;;4978077;28;20192;-79
2022/05/04 05:52:08;;;;;;;3.55;2.70;;;;;;;;;;4984213;28;20556;-75
2022/05/04 05:54:35;;;;;;;3.35;2.70;;;;;;;;;;4982502;28;20209;-76
2022/05/04 05:57:02;;;;;;;6.57;3.65;;;;;;;;;;4990822;28;20640;-75
2022/05/04 05:59:29;;;;;;;6.57;3.20;;;;;;;;;;4970336;28;20645;-75
2022/05/04 06:01:56;;;;;;;7.30;2.65;;;;;;;;;;4980631;28;20668;-75
2022/05/04 06:04:23;;;;;;;4.32;2.70;;;;;;;;;;4982578;28;20575;-78
2022/05/04 06:06:51;;;;;;;2.60;2.33;;;;;;;;;;4983831;28;20592;-78
2022/05/04 06:09:19;;;;;;;7.13;2.72;;;;;;;;;;4965463;28;20264;-77
2022/05/04 06:11:46;;;;;;;4.05;2.90;;;;;;;;;;4979382;28;20227;-75
2022/05/04 06:14:14;;;;;;;2.72;2.53;;;;;;;;;;4980329;28;20197;-77
2022/05/04 06:16:41;;;;;;;5.88;2.80;;;;;;;;;;4971686;28;20772;-76
2022/05/04 06:19:08;;;;;;;4.55;2.50;;;;;;;;;;4965207;28;20212;-75
2022/05/04 06:21:35;;;;;;;3.78;2.30;;;;;;;;;;4978556;28;20193;-76
2022/05/04 06:24:02;;;;;;;6.72;2.70;;;;;;;;;;4967229;28;20200;-76
2022/05/04 06:26:31;;;;;;;5.90;1.88;;;;;;;;;;4973766;28;20225;-78
2022/05/04 06:28:58;;;;;;;3.67;2.58;;;;;;;;;;4983608;28;20201;-76
2022/05/04 06:34:12;;;;;;;8.23;2.45;;;;;;;;;;4981270;28;20196;-76
2022/05/04 06:36:40;;;;;;;5.28;2.53;;;;;;;;;;4981148;28;20207;-76
2022/05/04 06:39:08;;;;;;;4.35;2.70;;;;;;;;;;4967701;28;20640;-76
2022/05/04 06:41:37;;;;;;;5.25;2.70;;;;;;;;;;4980558;28;20303;-76
2022/05/04 06:44:04;;;;;;;5.97;3.05;;;;;;;;;;4987993;28;20211;-77
2022/05/04 06:46:31;;;;;;;7.72;2.53;;;;;;;;;;4980506;28;20224;-76
2022/05/04 06:48:58;;;;;;;4.95;2.97;;;;;;;;;;4989379;28;20267;-77
2022/05/04 06:51:25;;;;;;;5.80;2.30;;;;;;;;;;4986037;28;20224;-76
2022/05/04 06:53:53;;;;;;;2.67;2.00;;;;;;;;;;4981765;28;20543;-75
2022/05/04 06:56:20;;;;;;;4.20;2.58;;;;;;;;;;4990809;28;20197;-77
2022/05/04 06:58:48;;;;;;;4.95;2.50;;;;;;;;;;4984528;28;20205;-76
2022/05/04 07:01:15;;;;;;;4.68;2.63;;;;;;;;;;4967997;28;20581;-76
2022/05/04 07:03:42;;;;;;;3.95;2.75;;;;;;;;;;4979881;28;20192;-76
2022/05/04 07:06:09;;;;;;;2.72;2.35;;;;;;;;;;4983232;28;20568;-77
2022/05/04 07:08:37;;;;;;;4.97;2.85;;;;;;;;;;4975964;28;20201;-76
2022/05/04 07:11:05;;;;;;;2.85;1.98;;;;;;;;;;4980932;28;20198;-76
2022/05/04 07:13:32;;;;;;;2.92;2.35;;;;;;;;;;4976895;28;20682;-76
2022/05/04 07:16:00;;;;;;;4.25;2.50;;;;;;;;;;4979430;28;20630;-77
2022/05/04 07:18:27;;;;;;;4.00;2.67;;;;;;;;;;4982454;28;20201;-76
2022/05/04 07:20:54;;;;;;;7.82;2.70;;;;;;;;;;4983001;28;20198;-77
2022/05/04 07:23:21;;;;;;;3.75;2.20;;;;;;;;;;4982178;28;20205;-76
2022/05/04 07:25:48;;;;;;;9.23;4.57;;;;;;;;;;4968746;28;20222;-77
2022/05/04 07:28:15;;;;;;;6.30;4.03;;;;;;;;;;4983474;28;20220;-76
2022/05/04 07:30:42;;;;;;;6.38;3.95;;;;;;;;;;4974570;28;20200;-78
2022/05/04 07:33:11;;;;;;;10.25;3.00;;;;;;;;;;4987444;28;20193;-77
2022/05/04 07:35:38;;;;;;;4.43;2.67;;;;;;;;;;4984616;28;20198;-76
2022/05/04 07:38:05;;;;;;;4.70;2.70;;;;;;;;;;4972927;28;20234;-77
2022/05/04 07:43:17;;;;;;;5.22;2.25;;;;;;;;;;4986442;28;20209;-78
2022/05/04 07:45:44;;;;;;;7.43;2.55;;;;;;;;;;4974927;28;20537;-78
2022/05/04 07:48:13;;;;;;;5.32;2.45;;;;;;;;;;4978388;28;20203;-77
2022/05/04 07:50:40;;;;;;;4.78;2.83;;;;;;;;;;4974831;28;20221;-76
2022/05/04 07:53:07;;;;;;;4.63;2.20;;;;;;;;;;4971887;28;20274;-76
2022/05/04 07:55:36;;;;;;;3.60;2.20;;;;;;;;;;4970621;28;20194;-77
2022/05/04 07:58:03;;;;;;;6.40;3.00;;;;;;;;;;4980775;28;20313;-76
2022/05/04 08:06:01;;;;;;;4.15;2.00;;;;;;;;;;4980279;28;20228;-77
2022/05/04 08:08:28;;;;;;;6.90;3.17;;;;;;;;;;4986796;28;20211;-77
2022/05/04 08:10:55;;;;;;;5.97;2.85;;;;;;;;;;4986591;28;20218;-76
2022/05/04 08:13:23;;;;;;;5.88;2.65;;;;;;;;;;4974190;28;20204;-76
2022/05/04 08:15:50;;;;;;;8.05;3.17;;;;;;;;;;4976362;28;20566;-77
2022/05/04 08:18:18;;;;;;;4.18;2.30;;;;;;;;;;4981037;28;20199;-76
2022/05/04 08:20:45;;;;;;;3.08;1.80;;;;;;;;;;4984069;28;20205;-77
2022/05/04 08:23:12;;;;;;;33.03;3.70;;;;;;;;;;4974340;28;20208;-76
2022/05/04 08:25:40;;;;;;;6.55;2.55;;;;;;;;;;4969442;28;20225;-77
2022/05/04 08:28:07;;;;;;;6.97;2.95;;;;;;;;;;4972503;28;20765;-77
2022/05/04 08:30:34;;;;;;;3.85;2.15;;;;;;;;;;4976836;28;20666;-77
2022/05/04 08:33:01;;;;;;;4.45;3.00;;;;;;;;;;4978757;28;20211;-79
2022/05/04 08:35:29;;;;;;;4.10;1.90;;;;;;;;;;4982664;28;20208;-77
2022/05/04 08:37:56;;;;;;;4.22;3.17;;;;;;;;;;4981038;28;20567;-77
2022/05/04 08:40:23;;;;;;;4.07;2.45;;;;;;;;;;4978379;28;20212;-77
2022/05/04 08:42:53;;;;;;;5.43;1.80;;;;;;;;;;4989843;28;20250;-77
2022/05/04 08:45:20;;;;;;;4.60;2.10;;;;;;;;;;4982321;28;20287;-78
2022/05/04 08:47:47;;;;;;;3.78;2.20;;;;;;;;;;4986095;28;20224;-76
2022/05/04 08:50:15;;;;;;;3.35;1.70;;;;;;;;;;4978570;28;20677;-78
2022/05/04 08:52:51;;;;;;;4.57;2.00;;;;;;;;;;4975290;28;20229;-77
2022/05/04 08:55:19;;;;;;;2.67;1.90;;;;;;;;;;4979883;28;20228;-76
2022/05/04 08:57:46;;;;;;;4.60;2.28;;;;;;;;;;4984708;28;20201;-76
2022/05/04 09:00:14;;;;;;;7.22;3.53;;;;;;;;;;4975822;28;20242;-76
2022/05/04 09:02:41;;;;;;;3.38;2.00;;;;;;;;;;4974518;28;20202;-77
2022/05/04 09:05:18;;;;;;;6.47;2.13;;;;;;;;;;4981143;28;20201;-77
2022/05/04 09:07:48;;;;;;;2.95;1.98;;;;;;;;;;4981227;28;20724;-77
2022/05/04 09:10:19;;;;;;;8.43;2.80;;;;;;;;;;4966192;28;20209;-77
2022/05/04 09:12:46;;;;;;;4.38;3.17;;;;;;;;;;4969230;28;20197;-76
2022/05/04 09:15:20;;;;;;;5.15;2.30;;;;;;;;;;4968213;28;20653;-77
2022/05/04 09:17:47;;;;;;;3.55;2.03;;;;;;;;;;4964009;28;20197;-77
2022/05/04 09:23:01;;;;;;;5.45;2.28;;;;;;;;;;4964826;28;20248;-77
2022/05/04 09:25:28;;;;;;;2.05;1.85;;;;;;;;;;4965580;28;20206;-77
2022/05/04 09:27:56;;;;;;;3.05;2.22;;;;;;;;;;4986864;28;20223;-77
2022/05/04 09:30:26;;;;;;;4.38;2.13;;;;;;;;;;4962768;28;20203;-77
2022/05/04 09:32:53;;;;;;;3.60;1.85;;;;;;;;;;4978592;28;20681;-77
2022/05/04 09:35:20;;;;;;;3.67;2.13;;;;;;;;;;4979135;28;20205;-76
2022/05/04 09:46:05;;;;;;;3.00;1.90;;;;;;;;;;4987207;28;20331;-77
2022/05/04 09:48:33;;;;;;;3.63;2.05;;;;;;;;;;4985185;28;20561;-77
2022/05/04 09:51:03;;;;;;;3.55;1.90;;;;;;;;;;4990576;28;20203;-78
2022/05/04 09:53:31;;;;;;;2.83;2.05;;;;;;;;;;4978612;28;20323;-78
2022/05/04 09:55:59;;;;;;;8.48;2.95;;;;;;;;;;4986046;28;20199;-77
2022/05/04 09:58:27;;;;;;;8.13;3.80;;;;;;;;;;4980548;28;20214;-76
2022/05/04 10:00:55;;;;;;;3.75;2.75;;;;;;;;;;4984101;28;20225;-78
2022/05/04 10:03:23;;;;;;;2.88;2.28;;;;;;;;;;4979092;28;20270;-76
2022/05/04 10:05:50;;;;;;;4.65;2.60;;;;;;;;;;4982340;28;20206;-77
2022/05/04 10:08:17;;;;;;;5.40;2.00;;;;;;;;;;4976975;28;20628;-76
2022/05/04 10:10:46;;;;;;;5.13;2.67;;;;;;;;;;4984243;28;20210;-78
2022/05/04 10:13:16;;;;;;;5.30;2.30;;;;;;;;;;4990790;28;20263;-76
2022/05/04 10:15:43;;;;;;;4.90;2.72;;;;;;;;;;4971398;28;20660;-76
2022/05/04 10:18:14;;;;;;;3.58;2.40;;;;;;;;;;4981705;28;20197;-77
2022/05/04 10:20:44;;;;;;;6.72;4.85;;;;;;;;;;4982414;28;20204;-77
2022/05/04 10:23:14;;;;;;;5.07;2.85;;;;;;;;;;4979217;28;20664;-78
2022/05/04 10:25:42;;;;;;;4.65;2.70;;;;;;;;;;4977582;28;20296;-78
2022/05/04 10:28:10;;;;;;;3.78;2.92;;;;;;;;;;4979901;28;20276;-77
2022/05/04 10:30:46;;;;;;;5.38;2.67;;;;;;;;;;4978385;28;20679;-84
2022/05/04 10:33:14;;;;;;;7.03;4.45;;;;;;;;;;4980037;28;20215;-76
2022/05/04 10:35:42;;;;;;;6.40;4.25;;;;;;;;;;4985889;28;20567;-77
2022/05/04 10:38:13;;;;;;;10.85;4.30;;;;;;;;;;4966948;28;20653;-77
2022/05/04 10:40:44;;;;;;;8.88;5.07;;;;;;;;;;4982180;28;20204;-76
2022/05/04 10:43:12;;;;;;;4.38;3.65;;;;;;;;;;4981037;28;20206;-77
2022/05/04 10:45:41;;;;;;;4.05;3.15;;;;;;;;;;4969971;28;20208;-77
2022/05/04 10:48:15;;;;;;;6.65;3.58;;;;;;;;;;4984023;28;20231;-77
2022/05/04 10:50:48;;;;;;;4.82;3.10;;;;;;;;;;4982391;28;20218;-77
2022/05/04 10:53:23;;;;;;;4.68;3.25;;;;;;;;;;4983127;28;20203;-77
2022/05/04 10:55:58;;;;;;;12.50;3.00;;;;;;;;;;4980886;28;20200;-77
2022/05/04 10:58:32;;;;;;;4.50;3.00;;;;;;;;;;4982851;28;20286;-77
2022/05/04 11:01:07;;;;;;;8.88;4.03;;;;;;;;;;4975369;28;20206;-79
2022/05/04 11:03:35;;;;;;;4.18;3.05;;;;;;;;;;4977258;28;20203;-79
2022/05/04 11:06:09;;;;;;;5.63;3.15;;;;;;;;;;4976334;28;20217;-77
2022/05/04 11:08:36;;;;;;;4.03;3.05;;;;;;;;;;4976310;28;20226;-78
2022/05/04 11:11:03;;;;;;;4.55;3.70;;;;;;;;;;4980579;28;20670;-78
2022/05/04 11:13:31;;;;;;;3.20;2.90;;;;;;;;;;4962911;28;20646;-78
2022/05/04 11:16:00;;;;;;;4.60;3.60;;;;;;;;;;4980496;28;20194;-78
2022/05/04 11:18:30;;;;;;;5.30;3.60;;;;;;;;;;4990846;28;20193;-79
2022/05/04 11:20:57;;;;;;;4.70;3.10;;;;;;;;;;4990206;28;20203;-80
2022/05/04 11:23:24;;;;;;;4.40;4.07;;;;;;;;;;4976590;28;20650;-77
2022/05/04 11:25:52;;;;;;;3.97;3.60;;;;;;;;;;4977610;28;20208;-79
2022/05/04 11:28:20;;;;;;;5.95;3.17;;;;;;;;;;4983176;28;20613;-79
2022/05/04 11:30:47;;;;;;;6.97;3.28;;;;;;;;;;4975392;28;20203;-78
2022/05/04 11:33:14;;;;;;;5.30;3.35;;;;;;;;;;4974033;28;20291;-79
2022/05/04 11:35:44;;;;;;;6.43;3.35;;;;;;;;;;4974721;28;20210;-79
2022/05/04 11:38:18;;;;;;;4.65;3.22;;;;;;;;;;4977166;28;20558;-80
2022/05/04 11:40:46;;;;;;;4.80;3.70;;;;;;;;;;4975539;28;20201;-79
2022/05/04 11:43:22;;;;;;;3.45;2.80;;;;;;;;;;4985035;28;21116;-79
2022/05/04 11:45:49;;;;;;;6.07;3.20;;;;;;;;;;4965276;28;20210;-79
2022/05/04 11:48:18;;;;;;;4.45;3.25;;;;;;;;;;4965200;28;20801;-79
2022/05/04 11:50:47;;;;;;;6.90;3.45;;;;;;;;;;4978812;28;20247;-78
2022/05/04 11:53:14;;;;;;;4.63;3.85;;;;;;;;;;4979108;28;20246;-78
2022/05/04 11:55:41;;;;;;;6.85;4.10;;;;;;;;;;4982650;28;20199;-78
2022/05/04 11:58:10;;;;;;;5.55;3.20;;;;;;;;;;4984469;28;20684;-76
2022/05/04 12:00:37;;;;;;;5.35;3.63;;;;;;;;;;4976867;28;20318;-79
2022/05/04 12:03:05;;;;;;;8.90;4.22;;;;;;;;;;4975028;28;20650;-80
2022/05/04 12:05:32;;;;;;;6.57;3.17;;;;;;;;;;4974194;28;20237;-79
2022/05/04 12:08:01;;;;;;;3.85;3.50;;;;;;;;;;4975363;28;20318;-80
2022/05/04 12:10:28;;;;;;;5.30;3.70;;;;;;;;;;4980907;28;20207;-79
2022/05/04 12:12:55;;;;;;;4.90;4.50;;;;;;;;;;4989037;28;20199;-78
2022/05/04 12:15:24;;;;;;;5.00;3.65;;;;;;;;;;4970762;28;20226;-80
2022/05/04 12:17:51;;;;;;;4.90;4.50;;;;;;;;;;4981343;28;20257;-79
2022/05/04 12:20:21;;;;;;;7.80;4.38;;;;;;;;;;4973691;28;20669;-80
2022/05/04 12:22:50;;;;;;;4.13;3.65;;;;;;;;;;4983426;28;20197;-77
2022/05/04 12:25:27;;;;;;;5.30;4.15;;;;;;;;;;5102286;27;20540;-80
2022/05/04 12:27:56;;;;;;;6.53;4.85;;;;;;;;;;5105724;28;20197;-79
2022/05/04 12:33:09;;;;;;;8.68;4.70;;;;;;;;;;5104065;28;20389;-83
2022/05/04 12:35:37;;;;;;;3.80;3.42;;;;;;;;;;5101316;28;20205;-81
2022/05/04 12:38:04;;;;;;;6.13;4.50;;;;;;;;;;5101230;28;20197;-81
2022/05/04 12:40:33;;;;;;;4.50;3.80;;;;;;;;;;5106791;28;20558;-81
2022/05/04 12:43:00;;;;;;;4.32;3.70;;;;;;;;;;5106024;28;20208;-80
2022/05/04 12:45:27;;;;;;;5.35;4.78;;;;;;;;;;5096599;28;20197;-81
2022/05/04 12:47:57;;;;;;;6.25;4.43;;;;;;;;;;5107303;28;20806;-82
2022/05/04 12:50:25;;;;;;;6.90;4.57;;;;;;;;;;5107273;28;20583;-80
2022/05/04 12:52:53;;;;;;;5.80;5.20;;;;;;;;;;5104613;28;20283;-83
2022/05/04 12:56:45;;;;;;;8.20;5.80;;;;;;;;;;5100124;28;20193;-81
2022/05/04 12:58:09;;;;;;;5.47;4.97;;;;;;;;;;5105414;28;20194;-81
2022/05/04 13:00:36;;;;;;;6.07;4.35;;;;;;;;;;5102561;28;20197;-80
2022/05/04 13:03:07;;;;;;;5.38;4.60;;;;;;;;;;5104760;28;20201;-81
2022/05/04 13:05:34;;;;;;;4.80;4.30;;;;;;;;;;5106191;28;20656;-81
2022/05/04 13:08:01;;;;;;;10.15;5.00;;;;;;;;;;5097601;28;20221;-81
2022/05/04 13:10:28;;;;;;;4.40;4.05;;;;;;;;;;5093344;28;20567;-81
2022/05/04 13:12:55;;;;;;;3.65;3.28;;;;;;;;;;5104804;28;20205;-81
2022/05/04 13:15:23;;;;;;;7.03;3.90;;;;;;;;;;5101871;28;20724;-80
2022/05/04 13:17:51;;;;;;;4.97;3.75;;;;;;;;;;5105827;28;20216;-81
2022/05/04 13:20:19;;;;;;;4.15;3.28;;;;;;;;;;5106644;28;20698;-84
2022/05/04 13:22:46;;;;;;;4.43;3.72;;;;;;;;;;5107048;28;20653;-81
2022/05/04 13:25:15;;;;;;;4.43;4.03;;;;;;;;;;5101476;28;20231;-81
2022/05/04 13:27:42;;;;;;;7.15;3.60;;;;;;;;;;5106467;28;20201;-81
2022/05/04 13:30:10;;;;;;;3.88;3.47;;;;;;;;;;5097307;28;20236;-81
2022/05/04 13:32:38;;;;;;;3.83;3.25;;;;;;;;;;5102829;28;20647;-81
2022/05/04 13:35:06;;;;;;;4.13;3.70;;;;;;;;;;5102043;28;20627;-81
2022/05/04 13:37:33;;;;;;;4.65;3.83;;;;;;;;;;5089471;28;20678;-81
2022/05/04 13:40:00;;;;;;;4.28;3.88;;;;;;;;;;5092104;28;20542;-81
2022/05/04 13:42:27;;;;;;;4.07;3.30;;;;;;;;;;5093192;28;20221;-81
2022/05/04 13:44:54;;;;;;;4.22;3.70;;;;;;;;;;5088273;28;20221;-81
2022/05/04 13:47:21;;;;;;;3.78;3.47;;;;;;;;;;5088028;28;20194;-81
2022/05/04 13:49:50;;;;;;;3.88;3.53;;;;;;;;;;5083975;28;20652;-81
2022/05/04 13:55:01;;;;;;;4.38;3.58;;;;;;;;;;5091166;28;20514;-81
2022/05/04 13:57:31;;;;;;;3.20;2.95;;;;;;;;;;5084636;28;20277;-80
2022/05/04 13:59:58;;;;;;;3.55;3.25;;;;;;;;;;5087857;28;20199;-81
2022/05/04 14:02:25;;;;;;;4.95;4.38;;;;;;;;;;5091136;28;20206;-81
2022/05/04 14:04:53;;;;;;;4.10;3.55;;;;;;;;;;5089189;28;20221;-81
2022/05/04 14:07:20;;;;;;;3.75;3.45;;;;;;;;;;5092175;28;20549;-81
2022/05/04 14:09:47;;;;;;;5.72;3.47;;;;;;;;;;5091945;28;20215;-80
2022/05/04 14:12:14;;;;;;;4.53;4.10;;;;;;;;;;5082261;28;20394;-80
2022/05/04 14:17:26;;;;;;;3.33;2.30;;;;;;;;;;5089246;28;20580;-80
2022/05/04 14:19:54;;;;;;;3.70;3.40;;;;;;;;;;5091722;28;20656;-82
2022/05/04 14:22:21;;;;;;;3.75;3.30;;;;;;;;;;5081146;28;20657;-81
2022/05/04 14:24:48;;;;;;;4.15;3.75;;;;;;;;;;5076334;28;20275;-80
2022/05/04 14:27:16;;;;;;;4.53;2.80;;;;;;;;;;5092464;28;20194;-81
2022/05/04 14:29:43;;;;;;;4.78;3.45;;;;;;;;;;5087037;28;20199;-81
2022/05/04 14:32:10;;;;;;;3.63;2.97;;;;;;;;;;5087309;28;20204;-81
2022/05/04 14:34:37;;;;;;;6.63;3.05;;;;;;;;;;5091795;28;20201;-81
2022/05/04 14:37:06;;;;;;;3.35;3.03;;;;;;;;;;5092366;28;20201;-81
2022/05/04 14:39:33;;;;;;;3.17;2.88;;;;;;;;;;5082627;28;20550;-81
2022/05/04 14:42:00;;;;;;;3.38;2.67;;;;;;;;;;5090578;28;20688;-80
2022/05/04 14:44:27;;;;;;;2.85;2.65;;;;;;;;;;5090178;28;20683;-79
2022/05/04 14:46:54;;;;;;;3.30;2.92;;;;;;;;;;5085183;28;20653;-80
2022/05/04 14:49:21;;;;;;;4.20;3.10;;;;;;;;;;5086400;28;20194;-79
2022/05/04 14:51:48;;;;;;;4.05;3.65;;;;;;;;;;5091304;28;20203;-80
2022/05/04 14:54:17;;;;;;;3.33;2.90;;;;;;;;;;5084557;28;20198;-80
2022/05/04 14:56:44;;;;;;;3.40;2.92;;;;;;;;;;5087442;28;20358;-79
2022/05/04 14:59:11;;;;;;;2.80;2.60;;;;;;;;;;5090986;28;20201;-81
2022/05/04 15:01:38;;;;;;;3.95;3.55;;;;;;;;;;5073169;28;20194;-79
2022/05/04 15:06:52;;;;;;;3.50;2.83;;;;;;;;;;5057190;28;20327;-79
2022/05/04 15:09:20;;;;;;;4.72;2.85;;;;;;;;;;5087444;28;20197;-78
2022/05/04 15:11:47;;;;;;;3.03;2.75;;;;;;;;;;5084527;28;20202;-78
2022/05/04 15:14:14;;;;;;;4.05;2.67;;;;;;;;;;5089354;28;20201;-80
2022/05/04 15:16:42;;;;;;;3.20;2.70;;;;;;;;;;5082175;28;20534;-80
2022/05/04 15:19:09;;;;;;;4.90;3.00;;;;;;;;;;5082844;28;20561;-79
2022/05/04 15:21:37;;;;;;;3.08;2.88;;;;;;;;;;5084548;28;20194;-78
2022/05/04 15:24:04;;;;;;;7.05;2.97;;;;;;;;;;5078720;28;20564;-78
2022/05/04 15:26:33;;;;;;;2.88;2.63;;;;;;;;;;5091258;28;20198;-79
2022/05/04 15:29:00;;;;;;;3.88;2.83;;;;;;;;;;5085733;28;20193;-79
2022/05/04 15:31:27;;;;;;;3.53;2.80;;;;;;;;;;5084880;28;20228;-79
2022/05/04 15:33:54;;;;;;;3.22;2.60;;;;;;;;;;5089657;28;20553;-80
2022/05/04 15:36:22;;;;;;;2.65;2.35;;;;;;;;;;5091034;28;20194;-79